sensor_id;sensor_type;location;lat;lon;timestamp;pressure;altitude;pressure_sealevel;temperature;humidity
9415;BME280;4746;35.664;139.738;2022-12-07T00:01:45;100519.38;;;14.86;40.63
9415;BME280;4746;35.664;139.738;2022-12-07T00:04:16;100521.97;;;14.86;40.82
9415;BME280;4746;35.664;139.738;2022-12-07T00:06:52;100510.78;;;14.87;40.73
9415;BME280;4746;35.664;139.738;2022-12-07T00:09:22;100512.50;;;14.85;40.92
9415;BME280;4746;35.664;139.738;2022-12-07T00:11:52;100515.94;;;14.87;40.88
9415;BME280;4746;35.664;139.738;2022-12-07T00:14:20;100492.72;;;14.89;40.69
9415;BME280;4746;35.664;139.738;2022-12-07T00:16:51;100503.88;;;14.92;40.48
9415;BME280;4746;35.664;139.738;2022-12-07T00:19:19;100506.44;;;14.94;40.18
9415;BME280;4746;35.664;139.738;2022-12-07T00:21:47;100500.41;;;14.96;40.59
9415;BME280;4746;35.664;139.738;2022-12-07T00:24:14;100502.06;;;15.03;40.22
9415;BME280;4746;35.664;139.738;2022-12-07T00:26:42;100501.16;;;15.13;40.18
9415;BME280;4746;35.664;139.738;2022-12-07T00:29:21;100487.34;;;15.20;39.96
9415;BME280;4746;35.664;139.738;2022-12-07T00:31:50;100491.66;;;15.20;39.80
9415;BME280;4746;35.664;139.738;2022-12-07T00:34:21;100496.81;;;15.26;39.93
9415;BME280;4746;35.664;139.738;2022-12-07T00:36:50;100506.25;;;15.28;40.28
9415;BME280;4746;35.664;139.738;2022-12-07T00:39:17;100503.63;;;15.32;39.80
9415;BME280;4746;35.664;139.738;2022-12-07T00:41:45;100511.34;;;15.35;39.52
9415;BME280;4746;35.664;139.738;2022-12-07T00:44:13;100516.44;;;15.43;39.40
9415;BME280;4746;35.664;139.738;2022-12-07T00:46:41;100513.00;;;15.44;39.05
9415;BME280;4746;35.664;139.738;2022-12-07T00:49:08;100508.72;;;15.44;38.91
9415;BME280;4746;35.664;139.738;2022-12-07T00:51:36;100510.41;;;15.47;38.87
9415;BME280;4746;35.664;139.738;2022-12-07T00:54:03;100500.03;;;15.50;38.46
9415;BME280;4746;35.664;139.738;2022-12-07T00:56:31;100499.16;;;15.52;37.81
9415;BME280;4746;35.664;139.738;2022-12-07T00:59:02;100501.72;;;15.57;37.60
9415;BME280;4746;35.664;139.738;2022-12-07T01:01:35;100493.06;;;15.59;37.67
9415;BME280;4746;35.664;139.738;2022-12-07T01:04:04;100493.03;;;15.64;37.92
9415;BME280;4746;35.664;139.738;2022-12-07T01:06:32;100493.00;;;15.70;37.48
9415;BME280;4746;35.664;139.738;2022-12-07T01:09:01;100485.19;;;15.73;37.67
9415;BME280;4746;35.664;139.738;2022-12-07T01:11:30;100495.53;;;15.74;37.51
9415;BME280;4746;35.664;139.738;2022-12-07T01:14:00;100492.94;;;15.76;37.76
9415;BME280;4746;35.664;139.738;2022-12-07T01:16:30;100487.72;;;15.79;37.75
9415;BME280;4746;35.664;139.738;2022-12-07T01:19:02;100490.28;;;15.83;37.49
9415;BME280;4746;35.664;139.738;2022-12-07T01:21:35;100489.38;;;15.89;37.71
9415;BME280;4746;35.664;139.738;2022-12-07T01:24:08;100481.53;;;15.93;37.85
9415;BME280;4746;35.664;139.738;2022-12-07T01:26:36;100481.50;;;16.00;38.23
9415;BME280;4746;35.664;139.738;2022-12-07T01:29:04;100471.91;;;16.08;37.88
9415;BME280;4746;35.664;139.738;2022-12-07T01:31:32;100481.25;;;16.20;37.43
9415;BME280;4746;35.664;139.738;2022-12-07T01:34:00;100482.06;;;16.29;37.31
9415;BME280;4746;35.664;139.738;2022-12-07T01:36:32;100488.81;;;16.39;37.05
9415;BME280;4746;35.664;139.738;2022-12-07T01:39:05;100475.81;;;16.45;36.92
9415;BME280;4746;35.664;139.738;2022-12-07T01:41:37;100477.38;;;16.57;36.50
9415;BME280;4746;35.664;139.738;2022-12-07T01:44:19;100465.22;;;16.63;36.16
9415;BME280;4746;35.664;139.738;2022-12-07T01:47:03;100461.66;;;16.71;35.99
9415;BME280;4746;35.664;139.738;2022-12-07T01:49:47;100464.03;;;16.88;35.93
9415;BME280;4746;35.664;139.738;2022-12-07T01:52:27;100456.94;;;16.99;35.65
9415;BME280;4746;35.664;139.738;2022-12-07T01:55:10;100441.13;;;17.17;35.53
9415;BME280;4746;35.664;139.738;2022-12-07T01:57:46;100428.72;;;17.37;34.73
9415;BME280;4746;35.664;139.738;2022-12-07T02:00:16;100433.69;;;17.48;34.28
9415;BME280;4746;35.664;139.738;2022-12-07T02:02:58;100441.28;;;17.59;34.45
9415;BME280;4746;35.664;139.738;2022-12-07T02:05:29;100434.25;;;17.65;33.96
9415;BME280;4746;35.664;139.738;2022-12-07T02:07:58;100427.28;;;17.70;33.66
9415;BME280;4746;35.664;139.738;2022-12-07T02:10:30;100424.47;;;17.81;33.48
9415;BME280;4746;35.664;139.738;2022-12-07T02:13:21;100416.41;;;17.94;33.75
9415;BME280;4746;35.664;139.738;2022-12-07T02:16:53;100416.22;;;18.05;33.47
9415;BME280;4746;35.664;139.738;2022-12-07T02:30:52;100397.53;;;18.69;32.05
9415;BME280;4746;35.664;139.738;2022-12-07T02:33:43;100392.06;;;18.81;31.92
9415;BME280;4746;35.664;139.738;2022-12-07T02:36:25;100387.66;;;18.84;31.31
9415;BME280;4746;35.664;139.738;2022-12-07T02:41:47;100384.53;;;19.08;31.28
9415;BME280;4746;35.664;139.738;2022-12-07T02:44:22;100373.88;;;19.17;30.98
9415;BME280;4746;35.664;139.738;2022-12-07T02:46:59;100372.53;;;19.36;30.72
9415;BME280;4746;35.664;139.738;2022-12-07T02:49:31;100365.25;;;19.50;30.25
9415;BME280;4746;35.664;139.738;2022-12-07T02:51:59;100372.50;;;19.69;29.90
9415;BME280;4746;35.664;139.738;2022-12-07T02:54:27;100357.28;;;19.86;29.88
9415;BME280;4746;35.664;139.738;2022-12-07T02:57:22;100352.41;;;20.06;29.87
9415;BME280;4746;35.664;139.738;2022-12-07T03:00:13;100351.63;;;20.31;29.97
9415;BME280;4746;35.664;139.738;2022-12-07T03:02:59;100348.00;;;20.64;29.90
9415;BME280;4746;35.664;139.738;2022-12-07T03:11:14;100346.09;;;21.47;28.69
9415;BME280;4746;35.664;139.738;2022-12-07T03:17:03;100333.75;;;23.28;26.82
9415;BME280;4746;35.664;139.738;2022-12-07T03:19:37;100330.97;;;23.91;26.33
9415;BME280;4746;35.664;139.738;2022-12-07T03:22:12;100319.94;;;24.40;25.59
9415;BME280;4746;35.664;139.738;2022-12-07T03:24:54;100319.94;;;24.58;25.35
9415;BME280;4746;35.664;139.738;2022-12-07T03:27:29;100322.97;;;24.67;24.34
9415;BME280;4746;35.664;139.738;2022-12-07T03:30:32;100325.94;;;24.23;24.61
9415;BME280;4746;35.664;139.738;2022-12-07T03:33:22;100315.28;;;23.71;24.84
9415;BME280;4746;35.664;139.738;2022-12-07T03:36:20;100319.44;;;23.37;25.32
9415;BME280;4746;35.664;139.738;2022-12-07T03:39:12;100312.47;;;23.37;25.18
9415;BME280;4746;35.664;139.738;2022-12-07T03:41:42;100310.88;;;25.34;22.74
9415;BME280;4746;35.664;139.738;2022-12-07T03:44:10;100311.50;;;27.96;21.13
9415;BME280;4746;35.664;139.738;2022-12-07T03:47:04;100306.16;;;30.28;18.82
9415;BME280;4746;35.664;139.738;2022-12-07T03:52:32;100295.91;;;32.61;17.39
9415;BME280;4746;35.664;139.738;2022-12-07T03:55:15;100291.94;;;33.38;16.98
9415;BME280;4746;35.664;139.738;2022-12-07T03:57:47;100286.44;;;34.01;16.33
9415;BME280;4746;35.664;139.738;2022-12-07T04:00:18;100288.19;;;34.79;15.57
9415;BME280;4746;35.664;139.738;2022-12-07T04:02:45;100283.78;;;35.63;14.84
9415;BME280;4746;35.664;139.738;2022-12-07T04:05:14;100280.72;;;36.21;14.35
9415;BME280;4746;35.664;139.738;2022-12-07T04:07:42;100280.22;;;36.96;14.57
9415;BME280;4746;35.664;139.738;2022-12-07T04:10:10;100274.81;;;37.49;13.50
9415;BME280;4746;35.664;139.738;2022-12-07T04:12:38;100266.22;;;37.96;12.49
9415;BME280;4746;35.664;139.738;2022-12-07T04:15:07;100272.19;;;38.15;12.97
9415;BME280;4746;35.664;139.738;2022-12-07T04:17:34;100272.25;;;38.31;12.83
9415;BME280;4746;35.664;139.738;2022-12-07T04:20:03;100259.69;;;38.24;11.99
9415;BME280;4746;35.664;139.738;2022-12-07T04:22:31;100259.88;;;38.38;11.95
9415;BME280;4746;35.664;139.738;2022-12-07T04:24:59;100254.13;;;38.82;11.26
9415;BME280;4746;35.664;139.738;2022-12-07T04:27:26;100251.44;;;39.30;11.56
9415;BME280;4746;35.664;139.738;2022-12-07T04:29:54;100246.63;;;39.87;11.59
9415;BME280;4746;35.664;139.738;2022-12-07T04:32:23;100245.59;;;40.27;10.84
9415;BME280;4746;35.664;139.738;2022-12-07T04:34:51;100230.94;;;40.37;11.09
9415;BME280;4746;35.664;139.738;2022-12-07T04:37:19;100234.44;;;40.07;10.84
9415;BME280;4746;35.664;139.738;2022-12-07T04:39:46;100234.38;;;39.77;11.56
9415;BME280;4746;35.664;139.738;2022-12-07T04:42:14;100239.13;;;39.67;10.97
9415;BME280;4746;35.664;139.738;2022-12-07T04:44:41;100235.28;;;39.54;11.07
9415;BME280;4746;35.664;139.738;2022-12-07T04:47:09;100239.16;;;39.59;10.61
9415;BME280;4746;35.664;139.738;2022-12-07T04:49:36;100235.81;;;40.03;10.51
9415;BME280;4746;35.664;139.738;2022-12-07T04:52:04;100231.00;;;40.29;10.30
9415;BME280;4746;35.664;139.738;2022-12-07T04:54:32;100245.72;;;40.63;9.99
9415;BME280;4746;35.664;139.738;2022-12-07T04:56:59;100244.50;;;40.66;9.68
9415;BME280;4746;35.664;139.738;2022-12-07T04:59:27;100244.44;;;40.51;9.65
9415;BME280;4746;35.664;139.738;2022-12-07T05:01:54;100247.38;;;40.64;9.64
9415;BME280;4746;35.664;139.738;2022-12-07T05:04:22;100240.47;;;40.92;9.33
9415;BME280;4746;35.664;139.738;2022-12-07T05:06:49;100235.28;;;41.13;9.46
9415;BME280;4746;35.664;139.738;2022-12-07T05:09:17;100245.59;;;40.79;9.48
9415;BME280;4746;35.664;139.738;2022-12-07T05:11:45;100244.69;;;40.72;9.66
9415;BME280;4746;35.664;139.738;2022-12-07T05:14:17;100242.34;;;40.92;9.79
9415;BME280;4746;35.664;139.738;2022-12-07T05:16:48;100237.06;;;41.35;9.34
9415;BME280;4746;35.664;139.738;2022-12-07T05:19:18;100238.03;;;41.71;9.44
9415;BME280;4746;35.664;139.738;2022-12-07T05:21:46;100240.06;;;41.54;8.73
9415;BME280;4746;35.664;139.738;2022-12-07T05:24:15;100243.09;;;41.00;9.30
9415;BME280;4746;35.664;139.738;2022-12-07T05:26:44;100243.34;;;40.91;9.36
9415;BME280;4746;35.664;139.738;2022-12-07T05:29:15;100239.69;;;40.61;9.67
9415;BME280;4746;35.664;139.738;2022-12-07T05:31:44;100239.69;;;40.39;9.87
9415;BME280;4746;35.664;139.738;2022-12-07T05:34:12;100235.53;;;40.29;9.38
9415;BME280;4746;35.664;139.738;2022-12-07T05:36:40;100227.00;;;39.79;9.78
9415;BME280;4746;35.664;139.738;2022-12-07T05:39:08;100222.13;;;39.20;10.08
9415;BME280;4746;35.664;139.738;2022-12-07T05:41:35;100225.59;;;38.57;10.51
9415;BME280;4746;35.664;139.738;2022-12-07T05:44:21;100219.84;;;37.87;10.54
9415;BME280;4746;35.664;139.738;2022-12-07T05:46:49;100213.97;;;37.51;10.79
9415;BME280;4746;35.664;139.738;2022-12-07T05:49:16;100224.59;;;36.57;11.25
9415;BME280;4746;35.664;139.738;2022-12-07T05:51:44;100228.16;;;35.68;12.01
9415;BME280;4746;35.664;139.738;2022-12-07T05:54:11;100230.81;;;34.84;12.54
9415;BME280;4746;35.664;139.738;2022-12-07T05:56:39;100232.13;;;34.13;13.18
9415;BME280;4746;35.664;139.738;2022-12-07T05:59:08;100230.22;;;33.55;13.78
9415;BME280;4746;35.664;139.738;2022-12-07T06:04:30;100229.59;;;33.02;14.41
9415;BME280;4746;35.664;139.738;2022-12-07T06:06:58;100233.72;;;33.06;13.96
9415;BME280;4746;35.664;139.738;2022-12-07T06:09:28;100238.06;;;32.75;14.24
9415;BME280;4746;35.664;139.738;2022-12-07T06:11:57;100239.81;;;32.01;14.80
9415;BME280;4746;35.664;139.738;2022-12-07T06:14:43;100249.94;;;31.07;15.31
9415;BME280;4746;35.664;139.738;2022-12-07T06:17:12;100257.09;;;30.25;16.12
9415;BME280;4746;35.664;139.738;2022-12-07T06:19:41;100268.22;;;29.44;16.51
9415;BME280;4746;35.664;139.738;2022-12-07T06:22:10;100264.94;;;28.89;17.29
9415;BME280;4746;35.664;139.738;2022-12-07T06:24:39;100260.41;;;28.91;17.95
9415;BME280;4746;35.664;139.738;2022-12-07T06:27:07;100251.22;;;28.84;17.97
9415;BME280;4746;35.664;139.738;2022-12-07T06:29:35;100253.00;;;28.58;18.46
9415;BME280;4746;35.664;139.738;2022-12-07T06:32:03;100253.81;;;28.46;18.27
9415;BME280;4746;35.664;139.738;2022-12-07T06:34:32;100262.59;;;28.32;18.86
9415;BME280;4746;35.664;139.738;2022-12-07T06:36:59;100262.97;;;27.86;19.24
9415;BME280;4746;35.664;139.738;2022-12-07T06:39:28;100266.31;;;27.33;19.47
9415;BME280;4746;35.664;139.738;2022-12-07T06:41:57;100272.84;;;26.67;20.00
9415;BME280;4746;35.664;139.738;2022-12-07T06:44:25;100276.84;;;26.12;20.15
9415;BME280;4746;35.664;139.738;2022-12-07T06:46:54;100277.31;;;25.73;21.28
9415;BME280;4746;35.664;139.738;2022-12-07T06:49:21;100283.69;;;25.35;21.63
9415;BME280;4746;35.664;139.738;2022-12-07T06:51:49;100286.56;;;25.14;21.80
9415;BME280;4746;35.664;139.738;2022-12-07T06:54:17;100278.41;;;24.84;21.81
9415;BME280;4746;35.664;139.738;2022-12-07T06:56:44;100286.78;;;24.39;21.94
9415;BME280;4746;35.664;139.738;2022-12-07T06:59:12;100294.41;;;23.89;22.35
9415;BME280;4746;35.664;139.738;2022-12-07T07:01:40;100286.78;;;23.45;22.46
9415;BME280;4746;35.664;139.738;2022-12-07T07:04:08;100297.50;;;23.00;22.98
9415;BME280;4746;35.664;139.738;2022-12-07T07:06:35;100302.66;;;22.60;23.28
9415;BME280;4746;35.664;139.738;2022-12-07T07:09:03;100298.94;;;22.21;23.79
9415;BME280;4746;35.664;139.738;2022-12-07T07:11:31;100315.16;;;21.85;24.62
9415;BME280;4746;35.664;139.738;2022-12-07T07:13:58;100301.75;;;21.47;25.03
9415;BME280;4746;35.664;139.738;2022-12-07T07:16:30;100303.63;;;21.19;25.42
9415;BME280;4746;35.664;139.738;2022-12-07T07:18:58;100307.16;;;20.92;25.89
9415;BME280;4746;35.664;139.738;2022-12-07T07:21:25;100312.22;;;20.69;26.06
9415;BME280;4746;35.664;139.738;2022-12-07T07:23:53;100313.00;;;20.45;26.35
9415;BME280;4746;35.664;139.738;2022-12-07T07:26:20;100311.13;;;20.23;26.47
9415;BME280;4746;35.664;139.738;2022-12-07T07:28:48;100315.22;;;20.03;26.92
9415;BME280;4746;35.664;139.738;2022-12-07T07:31:16;100313.25;;;19.80;27.41
9415;BME280;4746;35.664;139.738;2022-12-07T07:33:44;100315.47;;;19.63;27.39
9415;BME280;4746;35.664;139.738;2022-12-07T07:36:12;100315.84;;;19.50;27.76
9415;BME280;4746;35.664;139.738;2022-12-07T07:38:39;100322.16;;;19.40;27.95
9415;BME280;4746;35.664;139.738;2022-12-07T07:41:07;100322.53;;;19.28;28.00
9415;BME280;4746;35.664;139.738;2022-12-07T07:43:35;100328.09;;;19.13;27.93
9415;BME280;4746;35.664;139.738;2022-12-07T07:46:02;100326.66;;;19.00;28.38
9415;BME280;4746;35.664;139.738;2022-12-07T07:48:30;100332.09;;;18.91;28.35
9415;BME280;4746;35.664;139.738;2022-12-07T07:50:59;100332.41;;;18.80;28.92
9415;BME280;4746;35.664;139.738;2022-12-07T07:53:27;100331.78;;;18.70;29.23
9415;BME280;4746;35.664;139.738;2022-12-07T07:55:55;100325.97;;;18.59;29.06
9415;BME280;4746;35.664;139.738;2022-12-07T07:58:23;100318.38;;;18.50;29.07
9415;BME280;4746;35.664;139.738;2022-12-07T08:00:51;100324.72;;;18.39;29.24
9415;BME280;4746;35.664;139.738;2022-12-07T08:03:18;100335.34;;;18.28;29.34
9415;BME280;4746;35.664;139.738;2022-12-07T08:05:46;100335.53;;;18.18;29.55
9415;BME280;4746;35.664;139.738;2022-12-07T08:08:14;100332.28;;;18.10;29.63
9415;BME280;4746;35.664;139.738;2022-12-07T08:10:42;100320.38;;;18.00;30.17
9415;BME280;4746;35.664;139.738;2022-12-07T08:13:09;100328.28;;;17.94;29.99
9415;BME280;4746;35.664;139.738;2022-12-07T08:15:45;100328.38;;;17.90;30.64
9415;BME280;4746;35.664;139.738;2022-12-07T08:18:15;100329.34;;;17.84;30.57
9415;BME280;4746;35.664;139.738;2022-12-07T08:20:43;100320.94;;;17.73;30.23
9415;BME280;4746;35.664;139.738;2022-12-07T08:23:11;100317.59;;;17.68;30.54
9415;BME280;4746;35.664;139.738;2022-12-07T08:25:39;100309.00;;;17.66;30.50
9415;BME280;4746;35.664;139.738;2022-12-07T08:28:07;100319.47;;;17.60;30.48
9415;BME280;4746;35.664;139.738;2022-12-07T08:30:35;100322.13;;;17.57;30.64
9415;BME280;4746;35.664;139.738;2022-12-07T08:33:02;100322.16;;;17.56;30.75
9415;BME280;4746;35.664;139.738;2022-12-07T08:35:34;100324.78;;;17.54;30.60
9415;BME280;4746;35.664;139.738;2022-12-07T08:38:03;100307.63;;;17.47;30.60
9415;BME280;4746;35.664;139.738;2022-12-07T08:40:31;100315.53;;;17.41;30.53
9415;BME280;4746;35.664;139.738;2022-12-07T08:42:59;100314.72;;;17.40;31.08
9415;BME280;4746;35.664;139.738;2022-12-07T08:45:26;100316.47;;;17.38;30.81
9415;BME280;4746;35.664;139.738;2022-12-07T08:48:10;100319.94;;;17.38;31.32
9415;BME280;4746;35.664;139.738;2022-12-07T08:50:39;100321.75;;;17.32;31.41
9415;BME280;4746;35.664;139.738;2022-12-07T08:53:07;100321.84;;;17.26;31.75
9415;BME280;4746;35.664;139.738;2022-12-07T08:55:35;100313.25;;;17.24;32.02
9415;BME280;4746;35.664;139.738;2022-12-07T08:58:03;100312.41;;;17.23;31.86
9415;BME280;4746;35.664;139.738;2022-12-07T09:00:31;100322.81;;;17.20;32.29
9415;BME280;4746;35.664;139.738;2022-12-07T09:03:00;100329.78;;;17.15;32.33
9415;BME280;4746;35.664;139.738;2022-12-07T09:05:27;100319.53;;;17.09;32.62
9415;BME280;4746;35.664;139.738;2022-12-07T09:08:00;100322.22;;;17.05;32.87
9415;BME280;4746;35.664;139.738;2022-12-07T09:10:29;100326.66;;;16.98;32.91
9415;BME280;4746;35.664;139.738;2022-12-07T09:12:58;100331.00;;;16.95;33.37
9415;BME280;4746;35.664;139.738;2022-12-07T09:15:29;100341.38;;;16.95;33.33
9415;BME280;4746;35.664;139.738;2022-12-07T09:17:58;100332.00;;;16.89;33.87
9415;BME280;4746;35.664;139.738;2022-12-07T09:20:26;100324.25;;;16.86;33.44
9415;BME280;4746;35.664;139.738;2022-12-07T09:22:53;100333.00;;;16.81;34.34
9415;BME280;4746;35.664;139.738;2022-12-07T09:25:21;100328.72;;;16.78;34.23
9415;BME280;4746;35.664;139.738;2022-12-07T09:27:55;100332.22;;;16.74;34.54
9415;BME280;4746;35.664;139.738;2022-12-07T09:30:24;100330.53;;;16.73;34.80
9415;BME280;4746;35.664;139.738;2022-12-07T09:32:55;100319.34;;;16.71;34.80
9415;BME280;4746;35.664;139.738;2022-12-07T09:35:25;100331.47;;;16.68;35.19
9415;BME280;4746;35.664;139.738;2022-12-07T09:37:53;100318.56;;;16.67;35.32
9415;BME280;4746;35.664;139.738;2022-12-07T09:40:23;100328.00;;;16.69;34.85
9415;BME280;4746;35.664;139.738;2022-12-07T09:42:54;100321.13;;;16.68;35.22
9415;BME280;4746;35.664;139.738;2022-12-07T09:45:37;100325.44;;;16.69;35.35
9415;BME280;4746;35.664;139.738;2022-12-07T09:48:15;100327.22;;;16.64;35.24
9415;BME280;4746;35.664;139.738;2022-12-07T09:50:44;100333.31;;;16.60;35.52
9415;BME280;4746;35.664;139.738;2022-12-07T09:53:37;100329.75;;;16.67;35.48
9415;BME280;4746;35.664;139.738;2022-12-07T09:56:05;100321.22;;;16.62;35.97
9415;BME280;4746;35.664;139.738;2022-12-07T09:58:34;100321.22;;;16.62;35.83
9415;BME280;4746;35.664;139.738;2022-12-07T10:01:19;100337.59;;;16.64;35.52
9415;BME280;4746;35.664;139.738;2022-12-07T10:04:23;100333.19;;;16.69;35.82
9415;BME280;4746;35.664;139.738;2022-12-07T10:06:52;100342.75;;;16.64;35.97
9415;BME280;4746;35.664;139.738;2022-12-07T10:09:22;100336.72;;;16.65;36.14
9415;BME280;4746;35.664;139.738;2022-12-07T10:12:12;100336.75;;;16.62;36.46
9415;BME280;4746;35.664;139.738;2022-12-07T10:15:01;100331.63;;;16.59;36.34
9415;BME280;4746;35.664;139.738;2022-12-07T10:17:36;100326.53;;;16.55;36.76
9415;BME280;4746;35.664;139.738;2022-12-07T10:20:26;100338.53;;;16.57;36.46
9415;BME280;4746;35.664;139.738;2022-12-07T10:25:33;100334.28;;;16.55;36.68
9415;BME280;4746;35.664;139.738;2022-12-07T10:31:00;100326.53;;;16.52;37.13
9415;BME280;4746;35.664;139.738;2022-12-07T10:34:01;100324.94;;;16.46;36.89
9415;BME280;4746;35.664;139.738;2022-12-07T10:36:39;100331.91;;;16.41;37.06
9415;BME280;4746;35.664;139.738;2022-12-07T10:39:22;100338.75;;;16.42;37.40
9415;BME280;4746;35.664;139.738;2022-12-07T10:42:02;100334.53;;;16.37;37.65
9415;BME280;4746;35.664;139.738;2022-12-07T10:44:34;100321.63;;;16.37;37.55
9415;BME280;4746;35.664;139.738;2022-12-07T10:50:04;100332.88;;;16.34;37.45
9415;BME280;4746;35.664;139.738;2022-12-07T10:55:54;100339.00;;;16.24;37.89
9415;BME280;4746;35.664;139.738;2022-12-07T10:58:57;100332.13;;;16.23;37.71
9415;BME280;4746;35.664;139.738;2022-12-07T11:04:59;100350.28;;;16.19;38.12
9415;BME280;4746;35.664;139.738;2022-12-07T11:08:19;100339.13;;;16.15;38.50
9415;BME280;4746;35.664;139.738;2022-12-07T11:10:55;100356.44;;;16.07;38.90
9415;BME280;4746;35.664;139.738;2022-12-07T11:20:05;100346.19;;;16.01;39.59
9415;BME280;4746;35.664;139.738;2022-12-07T11:26:41;100357.25;;;16.14;39.43
9415;BME280;4746;35.664;139.738;2022-12-07T11:32:41;100359.53;;;16.36;39.46
9415;BME280;4746;35.664;139.738;2022-12-07T11:38:22;100348.94;;;16.56;39.44
9415;BME280;4746;35.664;139.738;2022-12-07T11:40:56;100357.41;;;16.64;39.82
9415;BME280;4746;35.664;139.738;2022-12-07T11:50:16;100350.06;;;16.91;38.96
9415;BME280;4746;35.664;139.738;2022-12-07T11:52:56;100356.13;;;16.91;38.72
9415;BME280;4746;35.664;139.738;2022-12-07T12:06:44;100360.78;;;16.70;38.65
9415;BME280;4746;35.664;139.738;2022-12-07T12:15:37;100360.25;;;16.46;38.92
9415;BME280;4746;35.664;139.738;2022-12-07T12:20:51;100358.75;;;16.33;39.13
9415;BME280;4746;35.664;139.738;2022-12-07T12:23:46;100363.03;;;16.32;38.87
9415;BME280;4746;35.664;139.738;2022-12-07T12:26:22;100353.66;;;16.24;38.97
9415;BME280;4746;35.664;139.738;2022-12-07T12:29:31;100352.81;;;16.23;39.39
9415;BME280;4746;35.664;139.738;2022-12-07T12:32:20;100348.59;;;16.16;39.19
9415;BME280;4746;35.664;139.738;2022-12-07T12:35:48;100337.38;;;16.17;39.06
9415;BME280;4746;35.664;139.738;2022-12-07T12:37:54;100339.25;;;16.06;39.13
9415;BME280;4746;35.664;139.738;2022-12-07T12:42:58;100323.84;;;15.98;39.37
9415;BME280;4746;35.664;139.738;2022-12-07T12:45:32;100311.78;;;15.99;39.82
9415;BME280;4746;35.664;139.738;2022-12-07T12:48:26;100312.66;;;15.96;39.82
9415;BME280;4746;35.664;139.738;2022-12-07T12:51:41;100323.91;;;15.95;40.10
9415;BME280;4746;35.664;139.738;2022-12-07T12:57:13;100316.91;;;16.01;40.33
9415;BME280;4746;35.664;139.738;2022-12-07T13:02:36;100320.28;;;16.06;40.11
9415;BME280;4746;35.664;139.738;2022-12-07T13:31:55;100317.28;;;15.74;41.02
9415;BME280;4746;35.664;139.738;2022-12-07T13:34:40;100331.94;;;15.69;40.88
9415;BME280;4746;35.664;139.738;2022-12-07T13:37:30;100332.91;;;15.61;41.39
9415;BME280;4746;35.664;139.738;2022-12-07T13:40:12;100331.28;;;15.55;41.34
9415;BME280;4746;35.664;139.738;2022-12-07T13:42:45;100330.44;;;15.52;40.96
9415;BME280;4746;35.664;139.738;2022-12-07T13:45:31;100320.97;;;15.52;41.03
9415;BME280;4746;35.664;139.738;2022-12-07T13:48:50;100331.38;;;15.48;40.76
9415;BME280;4746;35.664;139.738;2022-12-07T13:51:28;100340.84;;;15.43;41.38
9415;BME280;4746;35.664;139.738;2022-12-07T13:54:09;100330.53;;;15.43;41.37
9415;BME280;4746;35.664;139.738;2022-12-07T13:56:37;100330.53;;;15.43;41.69
9415;BME280;4746;35.664;139.738;2022-12-07T13:59:23;100327.94;;;15.43;41.65
9415;BME280;4746;35.664;139.738;2022-12-07T14:01:53;100330.53;;;15.44;41.68
9415;BME280;4746;35.664;139.738;2022-12-07T14:04:35;100333.09;;;15.46;41.50
9415;BME280;4746;35.664;139.738;2022-12-07T14:07:23;100332.31;;;15.38;41.67
9415;BME280;4746;35.664;139.738;2022-12-07T14:10:04;100333.19;;;15.37;41.63
9415;BME280;4746;35.664;139.738;2022-12-07T14:12:36;100331.53;;;15.31;41.82
9415;BME280;4746;35.664;139.738;2022-12-07T14:15:05;100326.44;;;15.26;42.21
9415;BME280;4746;35.664;139.738;2022-12-07T14:17:32;100341.03;;;15.28;41.83
9415;BME280;4746;35.664;139.738;2022-12-07T14:20:03;100336.78;;;15.24;42.10
9415;BME280;4746;35.664;139.738;2022-12-07T14:22:36;100334.25;;;15.14;41.90
9415;BME280;4746;35.664;139.738;2022-12-07T14:25:24;100330.81;;;15.12;42.14
9415;BME280;4746;35.664;139.738;2022-12-07T14:27:58;100331.75;;;15.06;41.90
9415;BME280;4746;35.664;139.738;2022-12-07T14:30:34;100325.78;;;15.01;42.04
9415;BME280;4746;35.664;139.738;2022-12-07T14:33:04;100324.13;;;14.91;42.22
9415;BME280;4746;35.664;139.738;2022-12-07T14:35:33;100322.50;;;14.83;42.58
9415;BME280;4746;35.664;139.738;2022-12-07T14:38:00;100325.09;;;14.81;42.55
9415;BME280;4746;35.664;139.738;2022-12-07T14:40:29;100322.53;;;14.80;42.44
9415;BME280;4746;35.664;139.738;2022-12-07T14:43:19;100332.00;;;14.76;42.80
9415;BME280;4746;35.664;139.738;2022-12-07T14:45:47;100331.22;;;14.68;42.93
9415;BME280;4746;35.664;139.738;2022-12-07T14:48:16;100334.72;;;14.63;43.02
9415;BME280;4746;35.664;139.738;2022-12-07T14:50:49;100342.47;;;14.58;43.05
9415;BME280;4746;35.664;139.738;2022-12-07T14:53:26;100332.16;;;14.56;42.94
9415;BME280;4746;35.664;139.738;2022-12-07T14:55:56;100337.38;;;14.48;42.71
9415;BME280;4746;35.664;139.738;2022-12-07T14:58:24;100332.22;;;14.47;42.52
9415;BME280;4746;35.664;139.738;2022-12-07T15:00:51;100334.84;;;14.45;42.42
9415;BME280;4746;35.664;139.738;2022-12-07T15:03:19;100325.38;;;14.46;41.43
9415;BME280;4746;35.664;139.738;2022-12-07T15:05:46;100327.06;;;14.48;41.48
9415;BME280;4746;35.664;139.738;2022-12-07T15:08:14;100331.28;;;14.58;40.70
9415;BME280;4746;35.664;139.738;2022-12-07T15:10:41;100325.28;;;14.57;41.08
9415;BME280;4746;35.664;139.738;2022-12-07T15:13:09;100335.59;;;14.57;40.70
9415;BME280;4746;35.664;139.738;2022-12-07T15:15:55;100330.38;;;14.66;40.18
9415;BME280;4746;35.664;139.738;2022-12-07T15:18:24;100334.66;;;14.69;39.74
9415;BME280;4746;35.664;139.738;2022-12-07T15:20:52;100330.34;;;14.69;39.68
9415;BME280;4746;35.664;139.738;2022-12-07T15:23:21;100330.38;;;14.66;39.84
9415;BME280;4746;35.664;139.738;2022-12-07T15:25:49;100339.81;;;14.66;40.04